»·PEaware :: N293WK KGCN-KHII

N293WK :: KGCN-KHII

FLIGHT INFORMATION

Flight Status: Arrived
Operator: Privately registered:
United States
More flights under this callsign
Pilot: Vinnie C. (35885)
Aircraft: Unknown
(P28S)
More flights by this aircraft type
Origin: KGCN Grand Canyon Natl Park
United States
Destination: KHII Lake Havasu City
United States
More flights between these airports :: More routes between these airports
Route:
File this flight plan on PilotEdge
Remarks:
Altitude:
(Current/Filed)
10,500ft
Speed:
(Current/Filed)
160kts
Departed: 23-Sep-21 06:16 PM
Arrived: 23-Sep-21 07:25 PM
Distance/Time
Traveled:
137nm/1:09
Distance/Time
To Go:
Arrived

Flight Plot

Page will automatically refresh every two minutes.


Map Options




Map Legend


Flown Route
Filed Route
Departure Airport
Arrival Airport
Navaid (VOR, NDB)
Fix

Horizontal Profiles

Position Reports

Time Latitude Longitude Heading Altitude Ground
Speed
23-Sep-21 18:06 35.960383 -112.135667 129 6611ft 0kts
23-Sep-21 18:07 35.960383 -112.135667 129 6611ft 0kts
23-Sep-21 18:07 35.960383 -112.135667 129 6611ft 0kts
23-Sep-21 18:08 35.960383 -112.135667 129 6611ft 0kts
23-Sep-21 18:10 35.960383 -112.135667 129 6611ft 0kts
23-Sep-21 18:10 35.960383 -112.135667 129 6611ft 0kts
23-Sep-21 18:11 35.960660 -112.136085 314 6611ft 0kts
23-Sep-21 18:12 35.960660 -112.136085 314 6611ft 0kts
23-Sep-21 18:13 35.960943 -112.136306 335 6611ft 4kts
23-Sep-21 18:14 35.961224 -112.136542 311 6611ft 6kts
23-Sep-21 18:15 35.953989 -112.145275 221 6679ft 91kts
23-Sep-21 18:16 35.936161 -112.172259 254 7468ft 102kts
23-Sep-21 18:17 35.928483 -112.207345 277 8212ft 110kts
23-Sep-21 18:18 35.925474 -112.244191 258 9080ft 110kts
23-Sep-21 18:19 35.918023 -112.281002 257 9901ft 110kts
23-Sep-21 18:20 35.909838 -112.318970 255 10504ft 124kts
23-Sep-21 18:21 35.899516 -112.363379 255 10575ft 139kts
23-Sep-21 18:22 35.888758 -112.409800 255 10610ft 141kts
23-Sep-21 18:23 35.877839 -112.456905 255 10606ft 141kts
23-Sep-21 18:24 35.866883 -112.504059 255 10574ft 143kts
23-Sep-21 18:25 35.855953 -112.551067 255 10573ft 143kts
23-Sep-21 18:26 35.845056 -112.598122 255 10575ft 143kts
23-Sep-21 18:27 35.834160 -112.645124 255 10571ft 143kts
23-Sep-21 18:28 35.823221 -112.692128 255 10572ft 143kts
23-Sep-21 18:29 35.812281 -112.739211 255 10590ft 142kts
23-Sep-21 18:30 35.801374 -112.786177 255 10597ft 142kts
23-Sep-21 18:31 35.790444 -112.833152 255 10595ft 142kts
23-Sep-21 18:32 35.779493 -112.880214 255 10587ft 143kts
23-Sep-21 18:33 35.768520 -112.927280 255 10608ft 142kts
23-Sep-21 18:34 35.757605 -112.974299 255 10599ft 143kts
23-Sep-21 18:35 35.746627 -113.021533 255 10587ft 143kts
23-Sep-21 18:36 35.735617 -113.068776 255 10633ft 143kts
23-Sep-21 18:37 35.724611 -113.116141 255 10613ft 144kts
23-Sep-21 18:38 35.704521 -113.158655 235 10562ft 146kts
23-Sep-21 18:39 35.679845 -113.198285 234 10615ft 144kts
23-Sep-21 18:40 35.655056 -113.237961 235 10633ft 145kts
23-Sep-21 18:41 35.630414 -113.277516 234 10622ft 147kts
23-Sep-21 18:42 35.605621 -113.317424 234 10637ft 146kts
23-Sep-21 18:43 35.580823 -113.357410 234 10614ft 146kts
23-Sep-21 18:44 35.556131 -113.397361 235 10612ft 147kts
23-Sep-21 18:45 35.531326 -113.437650 234 10593ft 147kts
23-Sep-21 18:46 35.506465 -113.478128 234 10528ft 148kts
23-Sep-21 18:47 35.481834 -113.518303 234 10497ft 148kts
23-Sep-21 18:48 35.457191 -113.558654 234 10469ft 147kts
23-Sep-21 18:49 35.432706 -113.598789 234 10447ft 147kts
23-Sep-21 18:50 35.408108 -113.639218 234 10455ft 148kts
23-Sep-21 18:51 35.383607 -113.679607 235 10433ft 146kts
23-Sep-21 18:52 35.359059 -113.720026 234 10403ft 147kts
23-Sep-21 18:53 35.334628 -113.760406 234 10377ft 146kts
23-Sep-21 18:54 35.310263 -113.800762 234 10401ft 147kts
23-Sep-21 18:55 35.285897 -113.841279 234 10440ft 147kts
23-Sep-21 18:56 35.261399 -113.882072 234 10439ft 149kts
23-Sep-21 18:57 35.236973 -113.922882 235 10455ft 148kts
23-Sep-21 18:58 35.212642 -113.963654 234 10465ft 148kts
23-Sep-21 18:59 35.188292 -114.004545 234 10474ft 148kts
23-Sep-21 19:00 35.164254 -114.045178 235 10522ft 146kts
23-Sep-21 19:01 35.140343 -114.085847 235 10542ft 147kts
23-Sep-21 19:02 35.110496 -114.119672 199 10014ft 156kts
23-Sep-21 19:03 35.067652 -114.132238 194 9189ft 158kts
23-Sep-21 19:04 35.024615 -114.139635 182 8467ft 155kts
23-Sep-21 19:05 34.981945 -114.143114 188 7706ft 153kts
23-Sep-21 19:06 34.940234 -114.149974 190 6962ft 149kts
23-Sep-21 19:07 34.898864 -114.151058 179 6190ft 148kts
23-Sep-21 19:08 34.858114 -114.146932 181 5466ft 145kts
23-Sep-21 19:09 34.818154 -114.146792 201 4672ft 145kts
23-Sep-21 19:10 34.792505 -114.178842 234 4568ft 125kts
23-Sep-21 19:11 34.773100 -114.214145 233 4615ft 125kts
23-Sep-21 19:12 34.755978 -114.251486 242 4605ft 127kts
23-Sep-21 19:13 34.736652 -114.286896 221 4597ft 125kts
23-Sep-21 19:14 34.705247 -114.303833 196 4563ft 123kts
23-Sep-21 19:15 34.672479 -114.317154 198 4086ft 123kts
23-Sep-21 19:16 34.641027 -114.332607 194 3335ft 122kts
23-Sep-21 19:17 34.608309 -114.340047 196 2368ft 117kts
23-Sep-21 19:18 34.580257 -114.352459 205 2300ft 105kts
23-Sep-21 19:19 34.560357 -114.378225 242 2223ft 110kts
23-Sep-21 19:20 34.552181 -114.376021 14 1893ft 124kts
23-Sep-21 19:21 34.581462 -114.389235 326 1663ft 107kts
23-Sep-21 19:22 34.595418 -114.376704 145 1114ft 90kts
23-Sep-21 19:23 34.577700 -114.362867 151 797ft 71kts
23-Sep-21 19:24 34.569455 -114.357604 185 770ft 11kts
23-Sep-21 19:25 34.568663 -114.357858 340 771ft 5kts
23-Sep-21 19:26 34.569817 -114.359813 239 769ft 9kts
23-Sep-21 19:27 34.568919 -114.360573 191 770ft 4kts
23-Sep-21 19:28 34.568906 -114.360576 194 770ft 0kts
23-Sep-21 19:29 34.568906 -114.360576 194 770ft 0kts

Navigation Log

Ident Type
Flight plan parsing failed, navigation log unavailable